Terminal Aerodrome Forecast
Issued by NWS Amarillo, TX

Home | Current Version | Previous Version | Text Only | Print | Product List | Glossary On
Versions: 1 2 3 4 5 6 7 8 9 10 11 12 13 14 15 16 17 18
000
FTUS44 KAMA 051100 RRA
TAFDHT
TAF
KDHT 051148Z 0512/0612 04007KT 6SM -SHRA BR SCT005 SCT015 OVC050
      TEMPO 0512/0514 BKN015
     FM051400 15014KT P6SM VCSH BKN030
     FM051900 18017KT 5SM -TSRA SCT015 BKN035CB
     FM052300 21012KT P6SM SCT050 BKN120=

USA.gov is the U.S. government's official web portal to all federal, state and local government web resources and services.